JAL138 RJOO-RJTT
Flight info
| Callsign | JAL138 |
|---|---|
| Flight time | 0h 56m |
| Altitude | 31000 |
| Route | DCT ASUKA DCT SHTLE Y71 XAC XAC2H |
| Aircraft | B77W/M-V/N |
Departure
| Time | 2026-05-06 12:33 |
|---|---|
| Airport | Osaka Itami International Airport (RJOO) |
Arrival
| Time | 2026-05-06 13:29 |
|---|---|
| Airport | Tokyo Haneda International Airport (RJTT) |
| Time | Latitude | Longitude | Altitude | Speed | Heading |
|---|---|---|---|---|---|
| 2026-05-06 12:16 | 34.79174 | 135.43852 | 53 ft | 0 kts | 31° |
| 2026-05-06 12:22 | 34.79171 | 135.43850 | 50 ft | 2 kts | 31° |
| 2026-05-06 12:22 | 34.79155 | 135.43838 | 48 ft | 3 kts | 31° |
| 2026-05-06 12:22 | 34.79138 | 135.43825 | 46 ft | 3 kts | 32° |
| 2026-05-06 12:23 | 34.79120 | 135.43812 | 49 ft | 3 kts | 32° |
| 2026-05-06 12:23 | 34.79103 | 135.43799 | 50 ft | 3 kts | 30° |
| 2026-05-06 12:23 | 34.79086 | 135.43788 | 47 ft | 3 kts | 30° |
| 2026-05-06 12:23 | 34.79070 | 135.43774 | 49 ft | 3 kts | 54° |
| 2026-05-06 12:24 | 34.79063 | 135.43754 | 48 ft | 3 kts | 94° |
| 2026-05-06 12:24 | 34.79068 | 135.43733 | 47 ft | 3 kts | 129° |
| 2026-05-06 12:24 | 34.79075 | 135.43723 | 46 ft | 2 kts | 135° |
| 2026-05-06 12:24 | 34.79089 | 135.43706 | 47 ft | 3 kts | 135° |
| 2026-05-06 12:25 | 34.79104 | 135.43689 | 48 ft | 3 kts | 135° |
| 2026-05-06 12:25 | 34.79118 | 135.43672 | 49 ft | 3 kts | 135° |
| 2026-05-06 12:25 | 34.79127 | 135.43661 | 48 ft | 0 kts | 135° |
| 2026-05-06 12:25 | 34.79128 | 135.43660 | 48 ft | 0 kts | 135° |
| 2026-05-06 12:27 | 34.79127 | 135.43661 | 48 ft | 1 kts | 135° |
| 2026-05-06 12:27 | 34.79098 | 135.43697 | 47 ft | 9 kts | 135° |
| 2026-05-06 12:27 | 34.79055 | 135.43748 | 49 ft | 9 kts | 135° |
| 2026-05-06 12:28 | 34.79013 | 135.43799 | 50 ft | 9 kts | 131° |
| 2026-05-06 12:28 | 34.78971 | 135.43850 | 47 ft | 9 kts | 136° |
| 2026-05-06 12:28 | 34.78927 | 135.43903 | 49 ft | 9 kts | 135° |
| 2026-05-06 12:28 | 34.78877 | 135.43963 | 47 ft | 11 kts | 135° |
| 2026-05-06 12:29 | 34.78806 | 135.44048 | 48 ft | 17 kts | 135° |
| 2026-05-06 12:29 | 34.78708 | 135.44167 | 50 ft | 21 kts | 135° |
| 2026-05-06 12:29 | 34.78605 | 135.44291 | 48 ft | 21 kts | 135° |
| 2026-05-06 12:29 | 34.78470 | 135.44336 | 52 ft | 21 kts | 178° |
| 2026-05-06 12:30 | 34.78330 | 135.44343 | 52 ft | 21 kts | 178° |
| 2026-05-06 12:30 | 34.78182 | 135.44339 | 48 ft | 21 kts | 161° |
| 2026-05-06 12:30 | 34.78075 | 135.44456 | 50 ft | 21 kts | 134° |
| 2026-05-06 12:30 | 34.77972 | 135.44581 | 49 ft | 21 kts | 135° |
| 2026-05-06 12:31 | 34.77870 | 135.44707 | 47 ft | 21 kts | 134° |
| 2026-05-06 12:31 | 34.77766 | 135.44832 | 47 ft | 21 kts | 136° |
| 2026-05-06 12:31 | 34.77650 | 135.44932 | 48 ft | 21 kts | 152° |
| 2026-05-06 12:31 | 34.77519 | 135.45008 | 50 ft | 21 kts | 160° |
| 2026-05-06 12:32 | 34.77427 | 135.44972 | 48 ft | 11 kts | 231° |
| 2026-05-06 12:32 | 34.77448 | 135.44911 | 50 ft | 9 kts | 315° |
| 2026-05-06 12:32 | 34.77554 | 135.44781 | 49 ft | 50 kts | 315° |
| 2026-05-06 12:32 | 34.78042 | 135.44190 | 49 ft | 145 kts | 315° |
| 2026-05-06 12:33 | 34.78940 | 135.43129 | 306 ft | 197 kts | 316° |
| 2026-05-06 12:33 | 34.79939 | 135.41918 | 1139 ft | 208 kts | 315° |
| 2026-05-06 12:33 | 34.80823 | 135.40533 | 2092 ft | 210 kts | 294° |
| 2026-05-06 12:33 | 34.81028 | 135.38742 | 2521 ft | 226 kts | 256° |
| 2026-05-06 12:34 | 34.80139 | 135.37121 | 2907 ft | 241 kts | 212° |
| 2026-05-06 12:34 | 34.78610 | 135.36693 | 3899 ft | 227 kts | 169° |
| 2026-05-06 12:34 | 34.77289 | 135.37537 | 5098 ft | 203 kts | 146° |
| 2026-05-06 12:34 | 34.76137 | 135.38589 | 5542 ft | 223 kts | 144° |
| 2026-05-06 12:35 | 34.74971 | 135.40015 | 5624 ft | 252 kts | 118° |
| 2026-05-06 12:35 | 34.74601 | 135.42171 | 6024 ft | 271 kts | 88° |
| 2026-05-06 12:35 | 34.74782 | 135.44499 | 6683 ft | 281 kts | 84° |
| 2026-05-06 12:35 | 34.75000 | 135.46885 | 7452 ft | 286 kts | 84° |
| 2026-05-06 12:36 | 34.75212 | 135.49310 | 8282 ft | 290 kts | 85° |
| 2026-05-06 12:36 | 34.75407 | 135.51742 | 9075 ft | 295 kts | 85° |
| 2026-05-06 12:36 | 34.75593 | 135.54239 | 9886 ft | 299 kts | 85° |
| 2026-05-06 12:36 | 34.75770 | 135.56797 | 10517 ft | 310 kts | 86° |
| 2026-05-06 12:37 | 34.75949 | 135.59524 | 10732 ft | 337 kts | 86° |
| 2026-05-06 12:37 | 34.76134 | 135.62471 | 10932 ft | 363 kts | 86° |
| 2026-05-06 12:37 | 34.76326 | 135.65641 | 11233 ft | 384 kts | 86° |
| 2026-05-06 12:37 | 34.76521 | 135.68937 | 11886 ft | 395 kts | 86° |
| 2026-05-06 12:38 | 34.76715 | 135.72265 | 12685 ft | 402 kts | 86° |
| 2026-05-06 12:38 | 34.76911 | 135.75685 | 13562 ft | 407 kts | 86° |
| 2026-05-06 12:38 | 34.77109 | 135.79157 | 14330 ft | 414 kts | 86° |
| 2026-05-06 12:38 | 34.77309 | 135.82686 | 15065 ft | 420 kts | 86° |
| 2026-05-06 12:39 | 34.77508 | 135.86240 | 15814 ft | 426 kts | 86° |
| 2026-05-06 12:39 | 34.77712 | 135.89873 | 16579 ft | 431 kts | 86° |
| 2026-05-06 12:39 | 34.77916 | 135.93542 | 17330 ft | 437 kts | 86° |
| 2026-05-06 12:39 | 34.78119 | 135.97218 | 18054 ft | 443 kts | 86° |
| 2026-05-06 12:40 | 34.78325 | 136.00988 | 18712 ft | 449 kts | 86° |
| 2026-05-06 12:40 | 34.78534 | 136.04816 | 19307 ft | 456 kts | 86° |
| 2026-05-06 12:40 | 34.78744 | 136.08695 | 19900 ft | 462 kts | 86° |
| 2026-05-06 12:40 | 34.78956 | 136.12620 | 20485 ft | 469 kts | 87° |
| 2026-05-06 12:41 | 34.79170 | 136.16614 | 21067 ft | 475 kts | 87° |
| 2026-05-06 12:41 | 34.79386 | 136.20662 | 21643 ft | 481 kts | 87° |
| 2026-05-06 12:41 | 34.79602 | 136.24753 | 22175 ft | 488 kts | 87° |
| 2026-05-06 12:41 | 34.79820 | 136.28897 | 22720 ft | 494 kts | 88° |
| 2026-05-06 12:42 | 34.79965 | 136.31670 | 23077 ft | 498 kts | 88° |
| 2026-05-06 12:42 | 34.80148 | 136.35183 | 23471 ft | 504 kts | 88° |
| 2026-05-06 12:42 | 34.80367 | 136.39410 | 23867 ft | 511 kts | 88° |
| 2026-05-06 12:42 | 34.80589 | 136.43745 | 24295 ft | 515 kts | 89° |
| 2026-05-06 12:43 | 34.80812 | 136.48126 | 24708 ft | 521 kts | 89° |
| 2026-05-06 12:43 | 34.81036 | 136.52552 | 25159 ft | 529 kts | 89° |
| 2026-05-06 12:43 | 34.81264 | 136.57058 | 25656 ft | 534 kts | 89° |
| 2026-05-06 12:43 | 34.81490 | 136.61600 | 26151 ft | 539 kts | 89° |
| 2026-05-06 12:44 | 34.81718 | 136.66189 | 26625 ft | 544 kts | 90° |
| 2026-05-06 12:44 | 34.81942 | 136.70755 | 27058 ft | 549 kts | 90° |
| 2026-05-06 12:44 | 34.82170 | 136.75414 | 27479 ft | 554 kts | 90° |
| 2026-05-06 12:44 | 34.82399 | 136.80128 | 27889 ft | 559 kts | 90° |
| 2026-05-06 12:45 | 34.82629 | 136.84880 | 28299 ft | 563 kts | 90° |
| 2026-05-06 12:45 | 34.82855 | 136.89608 | 28681 ft | 567 kts | 90° |
| 2026-05-06 12:45 | 34.82743 | 136.99224 | 29428 ft | 566 kts | 102° |
| 2026-05-06 12:46 | 34.82213 | 137.03982 | 29999 ft | 563 kts | 104° |
| 2026-05-06 12:46 | 34.81649 | 137.08640 | 30490 ft | 562 kts | 104° |
| 2026-05-06 12:46 | 34.81077 | 137.13342 | 30999 ft | 559 kts | 104° |
| 2026-05-06 12:46 | 34.80520 | 137.18030 | 31144 ft | 559 kts | 104° |
| 2026-05-06 12:47 | 34.79983 | 137.22679 | 31112 ft | 558 kts | 104° |
| 2026-05-06 12:47 | 34.79169 | 137.29890 | 31126 ft | 558 kts | 103° |
| 2026-05-06 12:48 | 34.78122 | 137.39198 | 31120 ft | 558 kts | 103° |
| 2026-05-06 12:48 | 34.77054 | 137.48578 | 31133 ft | 559 kts | 103° |
| 2026-05-06 12:49 | 34.75974 | 137.57953 | 31119 ft | 559 kts | 103° |
| 2026-05-06 12:49 | 34.74891 | 137.67318 | 31137 ft | 558 kts | 104° |
| 2026-05-06 12:50 | 34.73923 | 137.76658 | 31124 ft | 559 kts | 102° |
| 2026-05-06 12:50 | 34.73058 | 137.86067 | 31136 ft | 559 kts | 102° |
| 2026-05-06 12:51 | 34.72160 | 137.95405 | 31130 ft | 559 kts | 102° |
| 2026-05-06 12:51 | 34.71351 | 138.04818 | 31127 ft | 561 kts | 97° |
| 2026-05-06 12:52 | 34.71354 | 138.14356 | 31140 ft | 563 kts | 94° |
| 2026-05-06 12:52 | 34.71478 | 138.23860 | 31127 ft | 562 kts | 94° |
| 2026-05-06 12:53 | 34.71545 | 138.33301 | 31128 ft | 560 kts | 94° |
| 2026-05-06 12:53 | 34.71571 | 138.42752 | 30928 ft | 550 kts | 94° |
| 2026-05-06 12:53 | 34.71581 | 138.47334 | 30466 ft | 545 kts | 94° |
| 2026-05-06 12:54 | 34.71586 | 138.51954 | 29575 ft | 555 kts | 94° |
| 2026-05-06 12:54 | 34.71584 | 138.56746 | 29298 ft | 573 kts | 94° |
| 2026-05-06 12:54 | 34.71586 | 138.61649 | 29322 ft | 582 kts | 94° |
| 2026-05-06 12:55 | 34.71597 | 138.71633 | 29339 ft | 597 kts | 94° |
| 2026-05-06 12:55 | 34.71599 | 138.81778 | 29329 ft | 608 kts | 94° |
| 2026-05-06 12:56 | 34.71555 | 138.91987 | 29248 ft | 586 kts | 94° |
| 2026-05-06 12:56 | 34.71527 | 138.96791 | 28919 ft | 575 kts | 95° |
| 2026-05-06 12:56 | 34.71496 | 139.01663 | 28668 ft | 565 kts | 95° |
| 2026-05-06 12:56 | 34.71469 | 139.06394 | 28466 ft | 554 kts | 95° |
| 2026-05-06 12:57 | 34.71446 | 139.11017 | 27692 ft | 539 kts | 95° |
| 2026-05-06 12:57 | 34.71424 | 139.15512 | 26538 ft | 525 kts | 95° |
| 2026-05-06 12:57 | 34.71397 | 139.19864 | 25255 ft | 516 kts | 95° |
| 2026-05-06 12:57 | 34.71364 | 139.24266 | 23902 ft | 510 kts | 95° |
| 2026-05-06 12:58 | 34.71330 | 139.28503 | 22462 ft | 503 kts | 94° |
| 2026-05-06 12:58 | 34.71298 | 139.32710 | 21289 ft | 490 kts | 94° |
| 2026-05-06 12:58 | 34.71269 | 139.36785 | 20266 ft | 474 kts | 94° |
| 2026-05-06 12:58 | 34.71421 | 139.40726 | 19241 ft | 464 kts | 83° |
| 2026-05-06 12:59 | 34.72414 | 139.44429 | 18087 ft | 457 kts | 63° |
| 2026-05-06 12:59 | 34.74072 | 139.47626 | 16927 ft | 448 kts | 53° |
| 2026-05-06 12:59 | 34.76010 | 139.50575 | 16033 ft | 439 kts | 47° |
| 2026-05-06 12:59 | 34.78086 | 139.53266 | 15286 ft | 427 kts | 42° |
| 2026-05-06 13:00 | 34.80266 | 139.55532 | 14819 ft | 409 kts | 35° |
| 2026-05-06 13:00 | 34.82519 | 139.57628 | 14425 ft | 406 kts | 34° |
| 2026-05-06 13:00 | 34.84747 | 139.59690 | 14124 ft | 396 kts | 34° |
| 2026-05-06 13:00 | 34.86905 | 139.61693 | 13629 ft | 384 kts | 35° |
| 2026-05-06 13:01 | 34.88974 | 139.63623 | 13375 ft | 363 kts | 35° |
| 2026-05-06 13:01 | 34.90918 | 139.65445 | 13207 ft | 341 kts | 35° |
| 2026-05-06 13:01 | 34.92739 | 139.67156 | 13053 ft | 320 kts | 35° |
| 2026-05-06 13:01 | 34.94450 | 139.68766 | 12885 ft | 301 kts | 35° |
| 2026-05-06 13:02 | 34.96045 | 139.70267 | 12640 ft | 287 kts | 35° |
| 2026-05-06 13:02 | 34.97602 | 139.71731 | 12257 ft | 279 kts | 35° |
| 2026-05-06 13:02 | 34.99127 | 139.73166 | 11804 ft | 275 kts | 35° |
| 2026-05-06 13:02 | 35.00633 | 139.74584 | 11303 ft | 273 kts | 35° |
| 2026-05-06 13:03 | 35.02146 | 139.76008 | 10862 ft | 275 kts | 35° |
| 2026-05-06 13:03 | 35.03654 | 139.77430 | 10606 ft | 272 kts | 35° |
| 2026-05-06 13:03 | 35.05123 | 139.78818 | 10325 ft | 267 kts | 36° |
| 2026-05-06 13:03 | 35.06585 | 139.80199 | 9855 ft | 265 kts | 36° |
| 2026-05-06 13:04 | 35.08047 | 139.81581 | 9311 ft | 265 kts | 36° |
| 2026-05-06 13:04 | 35.09012 | 139.82493 | 8980 ft | 264 kts | 36° |
| 2026-05-06 13:04 | 35.10453 | 139.83857 | 8513 ft | 262 kts | 36° |
| 2026-05-06 13:04 | 35.11888 | 139.85215 | 8058 ft | 259 kts | 36° |
| 2026-05-06 13:05 | 35.13310 | 139.86562 | 7622 ft | 257 kts | 36° |
| 2026-05-06 13:05 | 35.14722 | 139.87899 | 7171 ft | 256 kts | 36° |
| 2026-05-06 13:05 | 35.16575 | 139.89657 | 6631 ft | 253 kts | 36° |
| 2026-05-06 13:05 | 35.17508 | 139.90542 | 6327 ft | 251 kts | 37° |
| 2026-05-06 13:06 | 35.18884 | 139.91846 | 5879 ft | 248 kts | 37° |
| 2026-05-06 13:06 | 35.20194 | 139.93091 | 5779 ft | 235 kts | 37° |
| 2026-05-06 13:06 | 35.21513 | 139.94344 | 5825 ft | 246 kts | 37° |
| 2026-05-06 13:06 | 35.22887 | 139.95649 | 5845 ft | 252 kts | 37° |
| 2026-05-06 13:07 | 35.24278 | 139.96965 | 5842 ft | 251 kts | 34° |
| 2026-05-06 13:07 | 35.25704 | 139.97756 | 5752 ft | 238 kts | 0° |
| 2026-05-06 13:07 | 35.27232 | 139.97428 | 5717 ft | 216 kts | 326° |
| 2026-05-06 13:07 | 35.28497 | 139.96464 | 5729 ft | 217 kts | 323° |
| 2026-05-06 13:08 | 35.29793 | 139.95508 | 5436 ft | 221 kts | 324° |
| 2026-05-06 13:08 | 35.31109 | 139.94571 | 5196 ft | 216 kts | 325° |
| 2026-05-06 13:08 | 35.32383 | 139.93669 | 5066 ft | 205 kts | 324° |
| 2026-05-06 13:08 | 35.33597 | 139.92809 | 5017 ft | 202 kts | 324° |
| 2026-05-06 13:09 | 35.34848 | 139.91917 | 4869 ft | 216 kts | 325° |
| 2026-05-06 13:09 | 35.36129 | 139.91010 | 4820 ft | 209 kts | 325° |
| 2026-05-06 13:09 | 35.37388 | 139.90119 | 4553 ft | 214 kts | 325° |
| 2026-05-06 13:09 | 35.38716 | 139.89174 | 3974 ft | 228 kts | 326° |
| 2026-05-06 13:10 | 35.40133 | 139.88168 | 3369 ft | 240 kts | 326° |
| 2026-05-06 13:10 | 35.41593 | 139.87135 | 2733 ft | 243 kts | 326° |
| 2026-05-06 13:10 | 35.43018 | 139.86129 | 2417 ft | 229 kts | 326° |
| 2026-05-06 13:10 | 35.44362 | 139.85175 | 2107 ft | 217 kts | 326° |
| 2026-05-06 13:11 | 35.45617 | 139.84284 | 1838 ft | 201 kts | 326° |
| 2026-05-06 13:11 | 35.46769 | 139.83466 | 1568 ft | 185 kts | 325° |
| 2026-05-06 13:11 | 35.47838 | 139.82706 | 1347 ft | 171 kts | 326° |
| 2026-05-06 13:11 | 35.48859 | 139.81978 | 1102 ft | 166 kts | 327° |
| 2026-05-06 13:12 | 35.49835 | 139.81285 | 916 ft | 158 kts | 327° |
| 2026-05-06 13:12 | 35.50770 | 139.80614 | 783 ft | 153 kts | 327° |
| 2026-05-06 13:12 | 35.51666 | 139.79959 | 542 ft | 151 kts | 328° |
| 2026-05-06 13:12 | 35.52577 | 139.79304 | 266 ft | 150 kts | 330° |
| 2026-05-06 13:13 | 35.53472 | 139.78687 | 117 ft | 147 kts | 330° |
| 2026-05-06 13:13 | 35.54406 | 139.78030 | 574 ft | 157 kts | 329° |
| 2026-05-06 13:13 | 35.55387 | 139.77336 | 1424 ft | 160 kts | 331° |
| 2026-05-06 13:13 | 35.56483 | 139.77208 | 1762 ft | 169 kts | 22° |
| 2026-05-06 13:14 | 35.57238 | 139.78235 | 2016 ft | 166 kts | 82° |
| 2026-05-06 13:14 | 35.56989 | 139.79508 | 2303 ft | 152 kts | 141° |
| 2026-05-06 13:14 | 35.56081 | 139.79988 | 2642 ft | 141 kts | 177° |
| 2026-05-06 13:14 | 35.55097 | 139.80141 | 3013 ft | 143 kts | 176° |
| 2026-05-06 13:15 | 35.54109 | 139.80308 | 3366 ft | 144 kts | 176° |
| 2026-05-06 13:15 | 35.53108 | 139.80472 | 3714 ft | 145 kts | 177° |
| 2026-05-06 13:15 | 35.52094 | 139.80635 | 3927 ft | 150 kts | 176° |
| 2026-05-06 13:15 | 35.51155 | 139.81179 | 3975 ft | 164 kts | 137° |
| 2026-05-06 13:16 | 35.50536 | 139.82679 | 4042 ft | 229 kts | 115° |
| 2026-05-06 13:16 | 35.50017 | 139.84535 | 3957 ft | 231 kts | 112° |
| 2026-05-06 13:16 | 35.49514 | 139.86415 | 3920 ft | 230 kts | 112° |
| 2026-05-06 13:16 | 35.49025 | 139.88267 | 3947 ft | 225 kts | 112° |
| 2026-05-06 13:17 | 35.48541 | 139.90104 | 4004 ft | 227 kts | 112° |
| 2026-05-06 13:17 | 35.48045 | 139.91971 | 4006 ft | 233 kts | 112° |
| 2026-05-06 13:17 | 35.47552 | 139.93836 | 4004 ft | 232 kts | 112° |
| 2026-05-06 13:17 | 35.47057 | 139.95703 | 3982 ft | 229 kts | 112° |
| 2026-05-06 13:18 | 35.46566 | 139.97557 | 3989 ft | 227 kts | 112° |
| 2026-05-06 13:18 | 35.46081 | 139.99395 | 4003 ft | 226 kts | 112° |
| 2026-05-06 13:18 | 35.45596 | 140.01234 | 3998 ft | 226 kts | 112° |
| 2026-05-06 13:18 | 35.44933 | 140.02929 | 3963 ft | 216 kts | 142° |
| 2026-05-06 13:19 | 35.43629 | 140.03707 | 4006 ft | 211 kts | 175° |
| 2026-05-06 13:19 | 35.42175 | 140.03950 | 4018 ft | 217 kts | 173° |
| 2026-05-06 13:19 | 35.40701 | 140.04371 | 4002 ft | 216 kts | 167° |
| 2026-05-06 13:19 | 35.39271 | 140.04932 | 3979 ft | 213 kts | 164° |
| 2026-05-06 13:20 | 35.37887 | 140.05593 | 3993 ft | 213 kts | 161° |
| 2026-05-06 13:20 | 35.36521 | 140.06317 | 4011 ft | 214 kts | 160° |
| 2026-05-06 13:20 | 35.35155 | 140.07082 | 4010 ft | 216 kts | 159° |
| 2026-05-06 13:20 | 35.33791 | 140.07867 | 4017 ft | 218 kts | 159° |
| 2026-05-06 13:21 | 35.32430 | 140.08657 | 4005 ft | 220 kts | 158° |
| 2026-05-06 13:21 | 35.31031 | 140.09329 | 3979 ft | 212 kts | 177° |
| 2026-05-06 13:21 | 35.29625 | 140.09072 | 4006 ft | 202 kts | 208° |
| 2026-05-06 13:21 | 35.28485 | 140.08045 | 4009 ft | 207 kts | 229° |
| 2026-05-06 13:22 | 35.27675 | 140.06575 | 4028 ft | 210 kts | 238° |
| 2026-05-06 13:22 | 35.26977 | 140.05020 | 3983 ft | 209 kts | 247° |
| 2026-05-06 13:22 | 35.26800 | 140.03264 | 4013 ft | 211 kts | 273° |
| 2026-05-06 13:22 | 35.27232 | 140.01540 | 3987 ft | 216 kts | 293° |
| 2026-05-06 13:23 | 35.27977 | 139.99906 | 4023 ft | 223 kts | 296° |
| 2026-05-06 13:23 | 35.28984 | 139.98447 | 4011 ft | 227 kts | 319° |
| 2026-05-06 13:23 | 35.30305 | 139.97347 | 3991 ft | 230 kts | 323° |
| 2026-05-06 13:23 | 35.31683 | 139.96319 | 4011 ft | 233 kts | 325° |
| 2026-05-06 13:24 | 35.33086 | 139.95319 | 3985 ft | 233 kts | 326° |
| 2026-05-06 13:24 | 35.34472 | 139.94341 | 4005 ft | 232 kts | 326° |
| 2026-05-06 13:24 | 35.35861 | 139.93360 | 3985 ft | 227 kts | 326° |
| 2026-05-06 13:24 | 35.37205 | 139.92413 | 3863 ft | 222 kts | 325° |
| 2026-05-06 13:25 | 35.38555 | 139.91454 | 3552 ft | 228 kts | 326° |
| 2026-05-06 13:25 | 35.39951 | 139.90462 | 3242 ft | 234 kts | 326° |
| 2026-05-06 13:25 | 35.41354 | 139.89468 | 2899 ft | 229 kts | 326° |
| 2026-05-06 13:25 | 35.42696 | 139.88521 | 2606 ft | 211 kts | 326° |
| 2026-05-06 13:26 | 35.43905 | 139.87666 | 2322 ft | 190 kts | 326° |
| 2026-05-06 13:26 | 35.44986 | 139.86898 | 2114 ft | 176 kts | 325° |
| 2026-05-06 13:26 | 35.46032 | 139.86153 | 1864 ft | 170 kts | 325° |
| 2026-05-06 13:26 | 35.47037 | 139.85439 | 1680 ft | 165 kts | 325° |
| 2026-05-06 13:27 | 35.48022 | 139.84739 | 1451 ft | 160 kts | 325° |
| 2026-05-06 13:27 | 35.48971 | 139.84065 | 1249 ft | 159 kts | 325° |
| 2026-05-06 13:27 | 35.49930 | 139.83383 | 1022 ft | 160 kts | 327° |
| 2026-05-06 13:27 | 35.50891 | 139.82700 | 814 ft | 158 kts | 327° |
| 2026-05-06 13:28 | 35.51828 | 139.82034 | 594 ft | 155 kts | 328° |
| 2026-05-06 13:28 | 35.52760 | 139.81344 | 402 ft | 156 kts | 328° |
| 2026-05-06 13:28 | 35.53688 | 139.80689 | 217 ft | 151 kts | 332° |
| 2026-05-06 13:28 | 35.54572 | 139.80093 | 36 ft | 137 kts | 330° |
| 2026-05-06 13:29 | 35.55291 | 139.79576 | 33 ft | 94 kts | 330° |
| 2026-05-06 13:29 | 35.55692 | 139.79291 | 32 ft | 42 kts | 330° |
| 2026-05-06 13:29 | 35.55895 | 139.79144 | 32 ft | 31 kts | 330° |
| 2026-05-06 13:29 | 35.56067 | 139.78986 | 31 ft | 33 kts | 313° |
| 2026-05-06 13:30 | 35.56138 | 139.78793 | 27 ft | 18 kts | 260° |
| 2026-05-06 13:30 | 35.56201 | 139.78670 | 29 ft | 23 kts | 324° |
| 2026-05-06 13:30 | 35.56316 | 139.78594 | 30 ft | 17 kts | 330° |
| 2026-05-06 13:30 | 35.56333 | 139.78582 | 30 ft | 1 kts | 329° |
| 2026-05-06 13:31 | 35.56337 | 139.78579 | 30 ft | 0 kts | 329° |
| 2026-05-06 13:32 | 35.56338 | 139.78579 | 30 ft | 1 kts | 329° |
| 2026-05-06 13:32 | 35.56375 | 139.78546 | 30 ft | 13 kts | 313° |
| 2026-05-06 13:32 | 35.56348 | 139.78399 | 30 ft | 24 kts | 239° |
| 2026-05-06 13:33 | 35.56262 | 139.78217 | 29 ft | 25 kts | 240° |
| 2026-05-06 13:33 | 35.56177 | 139.78036 | 30 ft | 25 kts | 240° |
| 2026-05-06 13:33 | 35.56092 | 139.77855 | 30 ft | 24 kts | 238° |
| 2026-05-06 13:33 | 35.56005 | 139.77673 | 28 ft | 25 kts | 240° |
| 2026-05-06 13:34 | 35.55950 | 139.77557 | 28 ft | 13 kts | 240° |
| 2026-05-06 13:34 | 35.55903 | 139.77459 | 27 ft | 13 kts | 237° |
| 2026-05-06 13:34 | 35.55825 | 139.77414 | 27 ft | 14 kts | 171° |
| 2026-05-06 13:34 | 35.55721 | 139.77487 | 27 ft | 23 kts | 151° |
| 2026-05-06 13:35 | 35.55583 | 139.77584 | 27 ft | 23 kts | 150° |
| 2026-05-06 13:35 | 35.55446 | 139.77681 | 27 ft | 23 kts | 150° |
| 2026-05-06 13:35 | 35.55307 | 139.77779 | 27 ft | 23 kts | 150° |
| 2026-05-06 13:35 | 35.55169 | 139.77877 | 28 ft | 23 kts | 150° |
| 2026-05-06 13:36 | 35.55096 | 139.77929 | 28 ft | 9 kts | 150° |
| 2026-05-06 13:36 | 35.55043 | 139.77966 | 28 ft | 10 kts | 150° |
| 2026-05-06 13:36 | 35.54953 | 139.78031 | 27 ft | 20 kts | 148° |
| 2026-05-06 13:36 | 35.54818 | 139.78127 | 28 ft | 23 kts | 150° |
| 2026-05-06 13:37 | 35.54686 | 139.78221 | 29 ft | 16 kts | 148° |
| 2026-05-06 13:37 | 35.54661 | 139.78270 | 28 ft | 3 kts | 71° |
| 2026-05-06 13:37 | 35.54684 | 139.78288 | 28 ft | 5 kts | 30° |
| 2026-05-06 13:37 | 35.54717 | 139.78308 | 27 ft | 6 kts | 23° |
| 2026-05-06 13:38 | 35.54750 | 139.78323 | 28 ft | 2 kts | 19° |
| 2026-05-06 13:38 | 35.54758 | 139.78327 | 28 ft | 1 kts | 20° |
| 2026-05-06 13:38 | 35.54763 | 139.78329 | 28 ft | 0 kts | 20° |
| 2026-05-06 13:38 | 35.54764 | 139.78330 | 28 ft | 0 kts | 20° |